createdAt,value
2019-03-27T00:00:20.081Z,9.43
2019-03-27T00:02:49.715Z,9.38
2019-03-27T00:05:19.069Z,9.38
2019-03-27T00:07:48.449Z,9.38
2019-03-27T00:10:17.864Z,9.36
2019-03-27T00:12:47.278Z,9.37
2019-03-27T00:15:16.681Z,9.36
2019-03-27T00:17:45.999Z,9.37
2019-03-27T00:20:15.353Z,9.39
2019-03-27T00:22:44.875Z,9.26
2019-03-27T00:25:14.374Z,9.26
2019-03-27T00:27:43.709Z,9.33
2019-03-27T00:30:13.657Z,9.35
2019-03-27T00:32:42.989Z,9.37
2019-03-27T00:35:12.337Z,9.31
2019-03-27T00:37:41.706Z,9.25
2019-03-27T00:40:11.044Z,9.18
2019-03-27T00:42:40.400Z,9.17
2019-03-27T00:45:09.751Z,9.14
2019-03-27T00:47:39.167Z,9.11
2019-03-27T00:50:08.839Z,9.12
2019-03-27T00:52:38.287Z,9.10
2019-03-27T00:55:08.060Z,8.98
2019-03-27T00:57:37.464Z,8.89
2019-03-27T01:00:28.505Z,8.77
2019-03-27T01:02:57.857Z,8.85
2019-03-27T01:05:27.230Z,8.84
2019-03-27T01:07:56.573Z,8.85
2019-03-27T01:10:25.918Z,8.83
2019-03-27T01:12:55.282Z,8.82
2019-03-27T01:15:38.794Z,8.83
2019-03-27T01:17:56.083Z,8.81
2019-03-27T01:20:25.455Z,8.72
2019-03-27T01:22:54.784Z,8.68
2019-03-27T01:25:24.152Z,8.70
2019-03-27T01:27:55.129Z,8.65
2019-03-27T01:30:24.531Z,8.70
2019-03-27T01:32:53.886Z,8.73
2019-03-27T01:35:23.230Z,8.72
2019-03-27T01:37:52.600Z,8.72
2019-03-27T01:40:21.941Z,8.74
2019-03-27T01:42:51.316Z,8.71
2019-03-27T01:45:20.646Z,8.70
2019-03-27T01:47:49.996Z,8.64
2019-03-27T01:50:19.361Z,8.64
2019-03-27T01:52:48.685Z,8.63
2019-03-27T01:55:18.057Z,8.59
2019-03-27T01:57:47.400Z,8.62
2019-03-27T02:00:16.747Z,8.63
2019-03-27T02:02:46.103Z,8.64
2019-03-27T02:05:15.440Z,8.65
2019-03-27T02:07:44.828Z,8.64
2019-03-27T02:10:14.171Z,8.61
2019-03-27T02:12:43.505Z,8.61
2019-03-27T02:15:12.864Z,8.54
2019-03-27T02:17:42.216Z,8.52
2019-03-27T02:20:11.598Z,8.49
2019-03-27T02:22:40.945Z,8.42
2019-03-27T02:25:10.289Z,8.39
2019-03-27T02:27:39.642Z,8.26
2019-03-27T02:30:09.223Z,8.18
2019-03-27T02:32:38.584Z,8.16
2019-03-27T02:35:07.923Z,8.07
2019-03-27T02:37:37.335Z,8.03
2019-03-27T02:40:08.175Z,7.95
2019-03-27T02:42:39.326Z,7.96
2019-03-27T02:45:09.095Z,7.95
2019-03-27T02:47:38.434Z,7.90
2019-03-27T02:50:08.352Z,7.84
2019-03-27T02:52:37.707Z,7.79
2019-03-27T02:55:08.203Z,7.81
2019-03-27T02:57:37.581Z,7.83
2019-03-27T03:00:12.188Z,7.77
2019-03-27T03:02:41.609Z,7.69
2019-03-27T03:05:10.977Z,7.73
2019-03-27T03:07:40.319Z,7.76
2019-03-27T03:10:10.022Z,7.82
2019-03-27T03:12:39.358Z,7.78
2019-03-27T03:15:10.133Z,7.78
2019-03-27T03:17:39.499Z,7.80
2019-03-27T03:20:09.039Z,7.79
2019-03-27T03:22:38.465Z,7.70
2019-03-27T03:25:07.821Z,7.74
2019-03-27T03:27:37.168Z,7.75
2019-03-27T03:30:10.185Z,7.76
2019-03-27T03:32:39.753Z,7.73
2019-03-27T03:35:09.726Z,7.70
2019-03-27T03:37:39.059Z,7.69
2019-03-27T03:40:09.921Z,7.69
2019-03-27T03:42:39.362Z,7.56
2019-03-27T03:45:08.756Z,7.61
2019-03-27T03:47:38.178Z,7.57
2019-03-27T03:50:08.148Z,7.53
2019-03-27T03:52:37.493Z,7.55
2019-03-27T03:55:07.240Z,7.58
2019-03-27T03:57:37.042Z,7.60
2019-03-27T04:00:08.199Z,7.59
2019-03-27T04:02:37.532Z,7.52
2019-03-27T04:05:08.028Z,7.51
2019-03-27T04:07:37.395Z,7.45
2019-03-27T04:10:07.924Z,7.42
2019-03-27T04:12:37.290Z,7.29
2019-03-27T04:15:07.920Z,7.18
2019-03-27T04:17:37.324Z,7.16
2019-03-27T04:20:08.032Z,7.15
2019-03-27T04:22:37.648Z,7.13
2019-03-27T04:25:07.808Z,7.08
2019-03-27T04:27:37.149Z,6.94
2019-03-27T04:30:07.829Z,6.90
2019-03-27T04:32:37.232Z,6.89
2019-03-27T04:35:07.549Z,6.82
2019-03-27T04:37:36.965Z,6.74
2019-03-27T04:40:08.203Z,6.66
2019-03-27T04:42:37.558Z,6.58
2019-03-27T04:45:06.919Z,6.47
2019-03-27T04:47:36.331Z,6.45
2019-03-27T04:50:07.445Z,6.42
2019-03-27T04:52:36.765Z,6.37
2019-03-27T04:55:07.187Z,6.37
2019-03-27T04:57:36.559Z,6.28
2019-03-27T05:00:07.996Z,6.28
2019-03-27T05:02:37.385Z,6.31
2019-03-27T05:05:08.060Z,6.23
2019-03-27T05:07:37.390Z,6.22
2019-03-27T05:10:07.013Z,6.26
2019-03-27T05:12:38.634Z,6.23
2019-03-27T05:15:08.431Z,6.21
2019-03-27T05:17:45.692Z,6.19
2019-03-27T05:20:09.572Z,6.21
2019-03-27T05:22:38.958Z,6.19
2019-03-27T05:25:28.299Z,6.22
2019-03-27T05:27:57.678Z,6.21
2019-03-27T05:30:30.858Z,6.16
2019-03-27T05:33:00.195Z,6.21
2019-03-27T05:35:29.584Z,6.20
2019-03-27T05:37:59.001Z,6.20
2019-03-27T05:40:28.342Z,6.21
2019-03-27T05:43:00.975Z,6.20
2019-03-27T05:45:28.775Z,6.11
2019-03-27T05:47:59.958Z,6.11
2019-03-27T05:50:29.216Z,6.11
2019-03-27T05:52:58.548Z,6.12
2019-03-27T05:55:27.983Z,6.13
2019-03-27T05:57:57.341Z,6.10
2019-03-27T06:00:26.684Z,6.09
2019-03-27T06:02:56.058Z,6.12
2019-03-27T06:05:44.833Z,6.08
2019-03-27T06:08:14.195Z,6.08
2019-03-27T06:10:43.528Z,6.08
2019-03-27T06:13:12.899Z,6.11
2019-03-27T06:15:44.978Z,6.08
2019-03-27T06:18:13.672Z,6.67
2019-03-27T06:20:43.093Z,7.54
2019-03-27T06:23:12.465Z,8.17
2019-03-27T06:25:41.871Z,8.66
2019-03-27T06:28:11.216Z,9.03
2019-03-27T06:30:40.572Z,9.35
2019-03-27T06:33:09.982Z,9.56
2019-03-27T06:35:39.310Z,9.76
2019-03-27T06:38:08.652Z,9.85
2019-03-27T06:40:39.754Z,9.99
2019-03-27T06:43:09.243Z,9.52
2019-03-27T06:45:38.702Z,9.07
2019-03-27T06:48:08.050Z,8.68
2019-03-27T06:50:37.391Z,8.42
2019-03-27T06:53:06.755Z,8.33
2019-03-27T06:55:36.115Z,8.36
2019-03-27T06:58:05.478Z,8.39
2019-03-27T07:00:38.398Z,8.29
2019-03-27T07:03:08.406Z,8.62
2019-03-27T07:05:37.760Z,8.87
2019-03-27T07:08:07.099Z,8.83
2019-03-27T07:10:36.496Z,8.74
2019-03-27T07:13:05.837Z,8.67
2019-03-27T07:15:35.936Z,8.64
2019-03-27T07:18:05.422Z,8.61
2019-03-27T07:20:34.771Z,8.66
2019-03-27T07:23:04.156Z,8.70
2019-03-27T07:25:33.515Z,8.67
2019-03-27T07:28:02.847Z,8.71
2019-03-27T07:30:32.248Z,8.77
2019-03-27T07:33:01.555Z,8.86
2019-03-27T07:35:30.938Z,8.91
2019-03-27T07:38:00.350Z,8.98
2019-03-27T07:40:29.697Z,9.04
2019-03-27T07:42:59.136Z,9.10
2019-03-27T07:45:28.482Z,9.18
2019-03-27T07:47:57.872Z,9.32
2019-03-27T07:50:27.223Z,9.39
2019-03-27T07:52:56.580Z,9.47
2019-03-27T07:55:25.949Z,9.57
2019-03-27T07:57:55.277Z,9.78
2019-03-27T08:00:24.674Z,9.94
2019-03-27T08:02:54.031Z,10.01
2019-03-27T08:05:23.418Z,10.23
2019-03-27T08:07:52.770Z,10.38
2019-03-27T08:10:22.124Z,10.55
2019-03-27T08:12:51.497Z,10.66
2019-03-27T08:15:20.850Z,10.76
2019-03-27T08:17:50.242Z,10.85
2019-03-27T08:20:19.595Z,10.86
2019-03-27T08:22:48.942Z,10.84
2019-03-27T08:25:18.699Z,10.83
2019-03-27T08:27:48.053Z,10.75
2019-03-27T08:30:19.059Z,10.67
2019-03-27T08:32:48.410Z,10.56
2019-03-27T08:35:17.776Z,10.63
2019-03-27T08:37:47.155Z,10.60
2019-03-27T08:40:16.531Z,10.36
2019-03-27T08:42:45.902Z,10.22
2019-03-27T08:45:15.250Z,10.26
2019-03-27T08:47:44.613Z,10.10
2019-03-27T08:50:14.044Z,10.04
2019-03-27T08:52:43.387Z,9.95
2019-03-27T08:55:13.876Z,10.02
2019-03-27T08:57:43.316Z,10.00
2019-03-27T09:00:15.682Z,9.95
2019-03-27T09:02:48.680Z,9.93
2019-03-27T09:05:18.027Z,9.98
2019-03-27T09:07:47.399Z,9.98
2019-03-27T09:10:16.757Z,9.95
2019-03-27T09:12:46.100Z,10.06
2019-03-27T09:15:15.480Z,10.14
2019-03-27T09:17:44.826Z,10.28
2019-03-27T09:20:14.260Z,10.43
2019-03-27T09:22:46.666Z,10.55
2019-03-27T09:25:16.049Z,10.62
2019-03-27T09:27:45.439Z,10.87
2019-03-27T09:30:14.779Z,10.92
2019-03-27T09:32:44.171Z,10.95
2019-03-27T09:35:13.587Z,10.94
2019-03-27T09:37:42.950Z,11.07
2019-03-27T09:40:13.107Z,11.29
2019-03-27T09:42:42.482Z,11.56
2019-03-27T09:45:11.921Z,11.51
2019-03-27T09:47:41.354Z,11.55
2019-03-27T09:50:10.698Z,11.66
2019-03-27T09:52:40.063Z,11.79
2019-03-27T09:55:09.416Z,11.98
2019-03-27T09:57:38.790Z,11.98
2019-03-27T10:00:08.370Z,12.09
2019-03-27T10:02:37.728Z,12.19
2019-03-27T10:05:08.065Z,12.20
2019-03-27T10:07:38.578Z,12.25
2019-03-27T10:10:08.011Z,12.40
2019-03-27T10:12:37.368Z,12.63
2019-03-27T10:15:08.365Z,12.75
2019-03-27T10:17:37.800Z,12.84
2019-03-27T10:20:07.229Z,12.85
2019-03-27T10:22:36.628Z,12.78
2019-03-27T10:25:07.850Z,12.87
2019-03-27T10:27:37.197Z,12.96
2019-03-27T10:30:09.727Z,13.08
2019-03-27T10:32:39.089Z,13.12
2019-03-27T10:35:08.486Z,13.15
2019-03-27T10:37:37.840Z,13.08
2019-03-27T10:40:08.257Z,13.17
2019-03-27T10:42:37.638Z,13.08
2019-03-27T10:45:07.986Z,13.17
2019-03-27T10:47:37.450Z,13.40
2019-03-27T10:50:16.912Z,13.28
2019-03-27T10:52:38.268Z,13.45
2019-03-27T10:55:07.623Z,13.54
2019-03-27T10:57:36.993Z,13.60
2019-03-27T11:00:10.118Z,13.55
2019-03-27T11:02:39.473Z,13.52
2019-03-27T11:05:08.898Z,13.57
2019-03-27T11:07:38.265Z,13.58
2019-03-27T11:10:08.845Z,13.76
2019-03-27T11:12:38.314Z,13.84
2019-03-27T11:15:08.304Z,14.07
2019-03-27T11:17:37.723Z,14.03
2019-03-27T11:20:08.066Z,14.19
2019-03-27T11:22:37.428Z,14.24
2019-03-27T11:25:07.174Z,14.28
2019-03-27T11:27:36.545Z,14.33
2019-03-27T11:30:08.628Z,14.55
2019-03-27T11:32:38.085Z,14.78
2019-03-27T11:35:07.448Z,14.56
2019-03-27T11:37:36.802Z,14.75
2019-03-27T11:40:06.714Z,14.81
2019-03-27T11:42:36.162Z,15.13
2019-03-27T11:45:07.806Z,15.29
2019-03-27T11:47:37.159Z,15.26
2019-03-27T11:50:09.904Z,15.22
2019-03-27T11:52:39.297Z,15.42
2019-03-27T11:55:08.679Z,15.59
2019-03-27T11:57:38.011Z,15.66
2019-03-27T12:00:11.167Z,15.48
2019-03-27T12:02:40.549Z,15.51
2019-03-27T12:05:09.933Z,15.48
2019-03-27T12:07:39.287Z,15.68
2019-03-27T12:10:08.721Z,15.47
2019-03-27T12:12:38.138Z,15.41
2019-03-27T12:15:07.846Z,15.64
2019-03-27T12:17:37.210Z,15.43
2019-03-27T12:20:07.606Z,15.15
2019-03-27T12:22:36.971Z,15.25
2019-03-27T12:25:06.992Z,15.33
2019-03-27T12:27:36.421Z,15.48
2019-03-27T12:30:07.839Z,15.82
2019-03-27T12:32:37.183Z,16.18
2019-03-27T12:35:06.748Z,16.31
2019-03-27T12:37:36.097Z,16.31
2019-03-27T12:40:11.311Z,15.93
2019-03-27T12:42:37.318Z,15.77
2019-03-27T12:45:07.728Z,15.80
2019-03-27T12:47:37.099Z,15.58
2019-03-27T12:50:07.791Z,15.47
2019-03-27T12:52:37.155Z,15.72
2019-03-27T12:55:06.810Z,15.78
2019-03-27T12:57:36.157Z,15.78
2019-03-27T13:00:07.981Z,15.72
2019-03-27T13:02:37.401Z,15.78
2019-03-27T13:05:07.733Z,16.04
2019-03-27T13:07:49.474Z,16.04
2019-03-27T13:10:08.193Z,16.22
2019-03-27T13:12:37.576Z,16.21
2019-03-27T13:15:07.892Z,16.21
2019-03-27T13:17:37.243Z,15.55
2019-03-27T13:20:07.751Z,15.56
2019-03-27T13:22:38.385Z,15.15
2019-03-27T13:25:08.598Z,15.06
2019-03-27T13:27:38.005Z,15.54
2019-03-27T13:30:08.507Z,15.81
2019-03-27T13:32:37.887Z,15.71
2019-03-27T13:35:07.829Z,15.51
2019-03-27T13:37:37.206Z,15.54
2019-03-27T13:40:09.813Z,15.48
2019-03-27T13:42:39.170Z,15.35
2019-03-27T13:45:09.929Z,15.29
2019-03-27T13:47:39.298Z,15.18
2019-03-27T13:50:13.129Z,14.98
2019-03-27T13:52:42.975Z,15.54
2019-03-27T13:55:12.456Z,16.11
2019-03-27T13:57:41.848Z,16.50
2019-03-27T14:00:13.695Z,16.45
2019-03-27T14:02:43.057Z,16.07
2019-03-27T14:05:12.446Z,15.80
2019-03-27T14:07:41.848Z,15.54
2019-03-27T14:10:11.293Z,15.49
2019-03-27T14:12:40.643Z,15.95
2019-03-27T14:15:10.097Z,16.72
2019-03-27T14:17:39.464Z,17.38
2019-03-27T14:20:09.163Z,17.75
2019-03-27T14:22:38.541Z,17.80
2019-03-27T14:25:09.338Z,18.51
2019-03-27T14:27:38.736Z,18.62
2019-03-27T14:30:12.169Z,18.60
2019-03-27T14:32:41.539Z,18.90
2019-03-27T14:35:10.903Z,19.46
2019-03-27T14:37:40.255Z,19.28
2019-03-27T14:40:09.705Z,19.56
2019-03-27T14:42:39.062Z,19.61
2019-03-27T14:45:09.144Z,18.29
2019-03-27T14:47:38.582Z,18.16
2019-03-27T14:50:08.901Z,17.64
2019-03-27T14:52:38.275Z,17.57
2019-03-27T14:55:08.466Z,18.01
2019-03-27T14:57:38.636Z,18.45
2019-03-27T15:00:10.602Z,18.94
2019-03-27T15:02:40.091Z,19.41
2019-03-27T15:05:10.567Z,19.56
2019-03-27T15:07:42.019Z,19.98
2019-03-27T15:10:11.100Z,19.94
2019-03-27T15:12:40.502Z,20.21
2019-03-27T15:15:11.168Z,20.66
2019-03-27T15:17:40.606Z,20.72
2019-03-27T15:20:10.043Z,20.27
2019-03-27T15:22:39.392Z,19.76
2019-03-27T15:25:08.984Z,19.46
2019-03-27T15:27:38.335Z,18.83
2019-03-27T15:30:12.817Z,18.21
2019-03-27T15:32:41.969Z,17.71
2019-03-27T15:35:11.329Z,17.38
2019-03-27T15:37:40.715Z,17.40
2019-03-27T15:40:10.136Z,18.16
2019-03-27T15:42:39.863Z,18.67
2019-03-27T15:45:09.253Z,18.98
2019-03-27T15:47:38.685Z,19.44
2019-03-27T15:50:08.064Z,19.58
2019-03-27T15:52:37.510Z,19.69
2019-03-27T15:55:06.868Z,20.15
2019-03-27T15:57:36.226Z,20.29
2019-03-27T16:00:06.510Z,20.06
2019-03-27T16:02:35.871Z,20.30
2019-03-27T16:05:06.765Z,20.32
2019-03-27T16:07:36.224Z,20.34
2019-03-27T16:10:07.421Z,20.52
2019-03-27T16:12:36.857Z,20.70
2019-03-27T16:15:09.255Z,20.90
2019-03-27T16:17:38.605Z,20.91
2019-03-27T16:20:08.169Z,20.96
2019-03-27T16:22:50.029Z,20.75
2019-03-27T16:25:08.957Z,20.58
2019-03-27T16:27:38.324Z,20.54
2019-03-27T16:30:07.753Z,20.51
2019-03-27T16:32:37.111Z,20.31
2019-03-27T16:35:07.705Z,19.87
2019-03-27T16:37:37.072Z,19.35
2019-03-27T16:40:07.065Z,18.71
2019-03-27T16:42:36.504Z,18.21
2019-03-27T16:45:08.984Z,17.70
2019-03-27T16:47:38.342Z,17.26
2019-03-27T16:50:10.446Z,16.73
2019-03-27T16:52:39.091Z,16.47
2019-03-27T16:55:08.576Z,16.07
2019-03-27T16:57:37.988Z,15.86
2019-03-27T17:00:08.195Z,15.78
2019-03-27T17:02:37.585Z,15.56
2019-03-27T17:05:07.801Z,15.38
2019-03-27T17:07:37.240Z,15.07
2019-03-27T17:10:07.796Z,14.87
2019-03-27T17:12:37.160Z,14.76
2019-03-27T17:15:07.311Z,14.71
2019-03-27T17:17:42.306Z,14.54
2019-03-27T17:20:12.779Z,14.33
2019-03-27T17:22:42.129Z,14.30
2019-03-27T17:25:11.552Z,14.14
2019-03-27T17:27:40.933Z,13.97
2019-03-27T17:30:10.902Z,13.92
2019-03-27T17:32:40.257Z,13.72
2019-03-27T17:35:09.620Z,13.63
2019-03-27T17:37:38.967Z,13.48
2019-03-27T17:40:08.399Z,13.48
2019-03-27T17:42:37.788Z,13.36
2019-03-27T17:45:07.712Z,13.29
2019-03-27T17:47:37.058Z,13.20
2019-03-27T17:50:07.560Z,13.07
2019-03-27T17:52:38.355Z,12.92
2019-03-27T17:55:08.352Z,12.88
2019-03-27T17:57:37.696Z,12.88
2019-03-27T18:00:12.254Z,12.76
2019-03-27T18:02:41.639Z,12.67
2019-03-27T18:05:10.993Z,12.58
2019-03-27T18:07:40.356Z,12.54
2019-03-27T18:10:09.717Z,12.43
2019-03-27T18:12:39.074Z,12.37
2019-03-27T18:15:08.503Z,12.27
2019-03-27T18:17:37.860Z,12.22
2019-03-27T18:20:07.230Z,12.14
2019-03-27T18:22:36.582Z,12.06
2019-03-27T18:25:06.971Z,11.82
2019-03-27T18:27:36.409Z,11.72
2019-03-27T18:30:07.679Z,11.58
2019-03-27T18:32:37.075Z,11.43
2019-03-27T18:35:07.403Z,11.35
2019-03-27T18:37:36.763Z,11.23
2019-03-27T18:40:07.458Z,11.12
2019-03-27T18:42:36.828Z,11.09
2019-03-27T18:45:09.205Z,10.92
2019-03-27T18:47:38.553Z,10.93
2019-03-27T18:50:08.078Z,10.85
2019-03-27T18:52:37.474Z,10.74
2019-03-27T18:55:08.499Z,10.68
2019-03-27T18:57:37.879Z,10.64
2019-03-27T19:00:08.915Z,10.57
2019-03-27T19:02:38.278Z,10.53
2019-03-27T19:05:11.077Z,10.51
2019-03-27T19:07:40.426Z,10.49
2019-03-27T19:10:11.435Z,10.37
2019-03-27T19:12:40.786Z,10.28
2019-03-27T19:15:10.135Z,10.23
2019-03-27T19:17:39.511Z,10.17
2019-03-27T19:20:08.875Z,10.14
2019-03-27T19:22:38.259Z,10.10
2019-03-27T19:25:08.384Z,10.05
2019-03-27T19:27:37.748Z,10.05
2019-03-27T19:30:09.022Z,9.97
2019-03-27T19:32:38.382Z,9.96
2019-03-27T19:35:07.765Z,9.93
2019-03-27T19:37:37.094Z,9.84
2019-03-27T19:40:06.812Z,9.79
2019-03-27T19:42:36.251Z,9.78
2019-03-27T19:45:06.657Z,9.78
2019-03-27T19:47:36.082Z,9.77
2019-03-27T19:50:07.069Z,9.71
2019-03-27T19:52:36.401Z,9.70
2019-03-27T19:55:06.546Z,9.67
2019-03-27T19:57:35.902Z,9.65
2019-03-27T20:00:09.017Z,9.61
2019-03-27T20:02:38.541Z,9.53
2019-03-27T20:05:08.753Z,9.47
2019-03-27T20:07:38.109Z,9.37
2019-03-27T20:10:08.724Z,9.35
2019-03-27T20:12:38.166Z,9.37
2019-03-27T20:15:12.247Z,9.28
2019-03-27T20:17:39.193Z,9.20
2019-03-27T20:20:09.767Z,9.11
2019-03-27T20:22:39.174Z,9.07
2019-03-27T20:25:09.892Z,9.00
2019-03-27T20:27:39.251Z,8.92
2019-03-27T20:30:15.490Z,8.97
2019-03-27T20:32:44.831Z,8.91
2019-03-27T20:35:14.180Z,8.94
2019-03-27T20:37:43.609Z,8.88
2019-03-27T20:40:13.029Z,8.87
2019-03-27T20:42:42.438Z,8.87
2019-03-27T20:45:11.855Z,8.82
2019-03-27T20:47:41.192Z,8.79
2019-03-27T20:50:10.551Z,8.74
2019-03-27T20:52:39.904Z,8.76
2019-03-27T20:55:09.279Z,8.75
2019-03-27T20:57:38.683Z,8.72
2019-03-27T21:00:09.012Z,8.67
2019-03-27T21:02:38.358Z,8.70
2019-03-27T21:05:08.076Z,8.72
2019-03-27T21:07:37.448Z,8.67
2019-03-27T21:10:07.522Z,8.60
2019-03-27T21:12:36.932Z,8.56
2019-03-27T21:15:07.710Z,8.56
2019-03-27T21:17:37.045Z,8.54
2019-03-27T21:20:07.059Z,8.48
2019-03-27T21:22:36.387Z,8.43
2019-03-27T21:25:09.173Z,8.40
2019-03-27T21:27:38.585Z,8.47
2019-03-27T21:30:11.447Z,8.43
2019-03-27T21:32:40.916Z,8.46
2019-03-27T21:35:10.248Z,8.49
2019-03-27T21:37:39.592Z,8.50
2019-03-27T21:40:09.025Z,8.47
2019-03-27T21:42:38.466Z,8.44
2019-03-27T21:45:10.912Z,8.48
2019-03-27T21:47:40.265Z,8.42
2019-03-27T21:50:09.944Z,8.43
2019-03-27T21:52:39.403Z,8.41
2019-03-27T21:55:21.464Z,8.41
2019-03-27T21:57:39.839Z,8.48
2019-03-27T22:00:10.889Z,8.52
2019-03-27T22:02:40.986Z,8.58
2019-03-27T22:05:10.372Z,8.57
2019-03-27T22:07:39.737Z,8.59
2019-03-27T22:10:09.101Z,8.58
2019-03-27T22:12:38.800Z,8.62
2019-03-27T22:15:09.884Z,8.62
2019-03-27T22:17:39.254Z,8.62
2019-03-27T22:20:08.676Z,8.54
2019-03-27T22:22:38.046Z,8.47
2019-03-27T22:25:08.270Z,8.47
2019-03-27T22:27:37.688Z,8.45
2019-03-27T22:30:09.922Z,8.35
2019-03-27T22:32:39.284Z,8.24
2019-03-27T22:35:08.799Z,8.27
2019-03-27T22:37:38.148Z,8.27
2019-03-27T22:40:08.295Z,8.34
2019-03-27T22:42:37.659Z,8.39
2019-03-27T22:45:07.304Z,8.29
2019-03-27T22:47:36.736Z,8.26
2019-03-27T22:50:08.398Z,8.18
2019-03-27T22:52:38.062Z,8.22
2019-03-27T22:55:08.675Z,8.19
2019-03-27T22:57:38.037Z,8.19
2019-03-27T23:00:12.174Z,8.15
2019-03-27T23:02:41.575Z,8.15
2019-03-27T23:05:10.960Z,8.11
2019-03-27T23:07:40.584Z,8.07
2019-03-27T23:10:09.953Z,8.04
2019-03-27T23:12:39.297Z,8.00
2019-03-27T23:15:10.556Z,7.98
2019-03-27T23:17:40.096Z,8.07
2019-03-27T23:20:09.467Z,8.04
2019-03-27T23:22:38.815Z,8.09
2019-03-27T23:25:09.148Z,8.09
2019-03-27T23:27:38.497Z,8.13
2019-03-27T23:30:08.980Z,8.09
2019-03-27T23:32:38.338Z,8.08
2019-03-27T23:35:08.534Z,8.06
2019-03-27T23:37:37.866Z,8.03
2019-03-27T23:40:07.602Z,7.92
2019-03-27T23:42:36.953Z,7.93
2019-03-27T23:45:07.439Z,7.98
2019-03-27T23:47:36.814Z,8.03
2019-03-27T23:50:08.670Z,8.00
2019-03-27T23:52:38.109Z,7.99
2019-03-27T23:55:07.713Z,8.04
2019-03-27T23:57:37.373Z,8.06
